Time;durP1;ratioP1;P1;durP2;ratioP2;P2;SDS_P1;SDS_P2;PMS_P1;PMS_P2;Temp;Humidity;BMP_temperature;BMP_pressure;BME280_temperature;BME280_humidity;BME280_pressure;Samples;Min_cycle;Max_cycle;Signal;HPM_P1;HPM_P2
2023/12/16 00:01:33;;;;;;;17.67;6.13;;;4.60;99.90;;;;;;5100467;28;20035;-67
2023/12/16 00:03:59;;;;;;;15.15;5.75;;;4.70;99.90;;;;;;5099746;28;20693;-66
2023/12/16 00:06:24;;;;;;;18.75;6.03;;;4.70;99.90;;;;;;5099362;28;20507;-68
2023/12/16 00:08:50;;;;;;;16.63;5.75;;;4.60;99.90;;;;;;5106051;28;20035;-66
2023/12/16 00:11:15;;;;;;;19.10;5.82;;;4.60;99.90;;;;;;5103204;28;20039;-67
2023/12/16 00:13:41;;;;;;;17.85;5.90;;;4.60;99.90;;;;;;5105445;28;20028;-67
2023/12/16 00:16:07;;;;;;;18.55;5.45;;;4.60;99.90;;;;;;5104144;28;20034;-66
2023/12/16 00:18:34;;;;;;;18.77;5.75;;;4.70;99.90;;;;;;5088364;28;20055;-67
2023/12/16 00:21:00;;;;;;;20.02;5.20;;;4.70;99.90;;;;;;5085785;28;20134;-68
2023/12/16 00:23:25;;;;;;;18.63;5.30;;;4.70;99.90;;;;;;5089396;28;20545;-65
2023/12/16 00:25:57;;;;;;;12.40;5.10;;;4.70;99.90;;;;;;5086445;28;20429;-66
2023/12/16 00:28:26;;;;;;;16.80;5.22;;;4.70;99.90;;;;;;5076160;28;20066;-66
2023/12/16 00:30:52;;;;;;;18.75;5.45;;;4.70;99.90;;;;;;5088430;28;20043;-66
2023/12/16 00:33:18;;;;;;;21.33;5.63;;;4.70;99.90;;;;;;5086439;28;20028;-67
2023/12/16 00:35:44;;;;;;;22.17;6.15;;;4.70;99.90;;;;;;5089805;28;20105;-67
2023/12/16 00:38:10;;;;;;;14.25;5.13;;;4.70;99.90;;;;;;5085213;28;20071;-67
2023/12/16 00:40:36;;;;;;;21.00;5.68;;;4.70;99.90;;;;;;5086775;28;20067;-69
2023/12/16 00:43:03;;;;;;;18.02;5.15;;;4.70;99.90;;;;;;5090716;28;20032;-66
2023/12/16 00:45:28;;;;;;;22.15;5.40;;;4.70;99.90;;;;;;5087582;28;20677;-66
2023/12/16 00:47:54;;;;;;;16.85;4.82;;;4.60;99.90;;;;;;5089465;28;20043;-67
2023/12/16 00:50:19;;;;;;;21.52;5.40;;;4.60;99.90;;;;;;5092939;28;20039;-67
2023/12/16 00:52:45;;;;;;;12.68;4.38;;;4.70;99.90;;;;;;5089395;28;20111;-66
2023/12/16 00:55:10;;;;;;;16.65;5.00;;;4.70;99.90;;;;;;5095743;28;20040;-67
2023/12/16 00:57:37;;;;;;;22.52;5.70;;;4.70;99.90;;;;;;5087031;28;20032;-67
2023/12/16 01:00:03;;;;;;;14.50;4.80;;;4.60;99.90;;;;;;5090713;28;20032;-66
2023/12/16 01:02:29;;;;;;;15.75;5.32;;;4.60;99.90;;;;;;5085320;28;20035;-66
2023/12/16 01:04:55;;;;;;;14.40;4.63;;;4.60;99.90;;;;;;5093583;28;20108;-66
2023/12/16 01:07:21;;;;;;;16.13;4.90;;;4.60;99.90;;;;;;5091048;28;20534;-66
2023/12/16 01:09:46;;;;;;;21.23;5.13;;;4.60;99.90;;;;;;5090364;28;20036;-67
2023/12/16 01:12:12;;;;;;;23.05;4.50;;;4.60;99.90;;;;;;5084407;28;20040;-66
2023/12/16 01:14:38;;;;;;;19.55;4.97;;;4.60;99.90;;;;;;5082156;28;20040;-68
2023/12/16 01:17:04;;;;;;;16.92;4.95;;;4.60;99.90;;;;;;5086635;28;20132;-68
2023/12/16 01:19:29;;;;;;;12.07;4.50;;;4.50;99.90;;;;;;5088589;28;20650;-66
2023/12/16 01:21:55;;;;;;;16.55;4.47;;;4.50;99.90;;;;;;5084101;28;20032;-66
2023/12/16 01:24:21;;;;;;;17.52;5.35;;;4.50;99.90;;;;;;5085813;28;20051;-67
2023/12/16 01:26:46;;;;;;;12.57;4.35;;;4.50;99.90;;;;;;5085866;28;20044;-66
2023/12/16 01:29:12;;;;;;;15.98;4.28;;;4.50;99.90;;;;;;5084934;28;20609;-67
2023/12/16 01:31:37;;;;;;;15.20;4.05;;;4.50;99.90;;;;;;5087549;28;20038;-66
2023/12/16 01:34:03;;;;;;;13.82;4.40;;;4.50;99.90;;;;;;5093791;28;20028;-67
2023/12/16 01:36:28;;;;;;;13.73;4.65;;;4.50;99.90;;;;;;5091594;28;20134;-67
2023/12/16 01:38:54;;;;;;;11.23;4.63;;;4.50;99.90;;;;;;5086408;28;20040;-66
2023/12/16 01:41:20;;;;;;;11.55;4.53;;;4.50;99.90;;;;;;5086111;28;20088;-69
2023/12/16 01:43:45;;;;;;;11.40;4.40;;;4.50;99.90;;;;;;5083307;28;20048;-68
2023/12/16 01:46:11;;;;;;;19.63;5.25;;;4.50;99.90;;;;;;5085313;28;20040;-67
2023/12/16 01:48:37;;;;;;;21.20;4.53;;;4.50;99.90;;;;;;5087289;28;20070;-66
2023/12/16 01:51:03;;;;;;;20.20;4.38;;;4.50;99.90;;;;;;5092395;28;20028;-68
2023/12/16 01:53:31;;;;;;;12.73;4.43;;;4.50;99.90;;;;;;5091748;28;20047;-69
2023/12/16 01:55:57;;;;;;;15.52;4.35;;;4.50;99.90;;;;;;5086863;28;20028;-67
2023/12/16 01:58:23;;;;;;;16.17;4.80;;;4.50;99.90;;;;;;5089693;28;20406;-65
2023/12/16 02:00:54;;;;;;;11.07;3.33;;;4.50;99.90;;;;;;5084133;28;20062;-67
2023/12/16 02:03:20;;;;;;;8.60;3.50;;;4.50;99.90;;;;;;5089259;28;20047;-67
2023/12/16 02:05:46;;;;;;;14.70;4.05;;;4.40;99.90;;;;;;5088703;28;20151;-67
2023/12/16 02:08:12;;;;;;;18.40;4.47;;;4.40;99.90;;;;;;5082083;28;20082;-66
2023/12/16 02:10:38;;;;;;;21.63;4.30;;;4.50;99.90;;;;;;5094430;28;20122;-68
2023/12/16 02:13:04;;;;;;;17.88;5.35;;;4.40;99.90;;;;;;5089037;28;20032;-66
2023/12/16 02:15:30;;;;;;;16.80;3.80;;;4.40;99.90;;;;;;5088515;28;20043;-67
2023/12/16 02:17:56;;;;;;;13.73;3.85;;;4.40;99.90;;;;;;5092571;28;20028;-67
2023/12/16 02:20:22;;;;;;;12.70;3.25;;;4.50;99.90;;;;;;5091994;28;20491;-67
2023/12/16 02:22:48;;;;;;;16.25;3.63;;;4.50;99.90;;;;;;5084599;28;20032;-67
2023/12/16 02:25:15;;;;;;;14.20;4.20;;;4.60;99.90;;;;;;5088476;28;20138;-68
2023/12/16 02:27:41;;;;;;;14.63;3.35;;;4.50;99.90;;;;;;5084511;28;20044;-66
2023/12/16 02:30:11;;;;;;;8.00;2.88;;;4.50;99.90;;;;;;5088444;28;20063;-66
2023/12/16 02:32:36;;;;;;;17.60;3.30;;;4.60;99.90;;;;;;5081648;28;20776;-66
2023/12/16 02:35:02;;;;;;;12.20;2.88;;;4.60;99.90;;;;;;5087330;28;20036;-66
2023/12/16 02:37:29;;;;;;;9.77;3.10;;;4.60;99.90;;;;;;5087618;28;20507;-67
2023/12/16 02:39:55;;;;;;;11.40;3.35;;;4.60;99.90;;;;;;5085399;28;20047;-67
2023/12/16 02:42:20;;;;;;;14.93;3.60;;;4.60;99.90;;;;;;5085276;28;20052;-67
2023/12/16 02:44:46;;;;;;;19.88;3.55;;;4.60;99.90;;;;;;5083323;28;20044;-66
2023/12/16 02:47:12;;;;;;;10.80;2.72;;;4.60;99.90;;;;;;5087440;28;20526;-67
2023/12/16 02:49:37;;;;;;;14.48;3.00;;;4.60;99.90;;;;;;5086817;28;20425;-67
2023/12/16 02:52:03;;;;;;;12.48;3.72;;;4.60;99.90;;;;;;5091641;28;20041;-67
2023/12/16 02:54:29;;;;;;;15.20;3.20;;;4.60;99.90;;;;;;5090387;28;20043;-67
2023/12/16 02:56:54;;;;;;;13.60;2.97;;;4.60;99.90;;;;;;5083191;28;20054;-67
2023/12/16 02:59:20;;;;;;;16.38;3.45;;;4.60;99.90;;;;;;5094946;28;20031;-67
2023/12/16 03:01:46;;;;;;;16.73;4.25;;;4.60;99.90;;;;;;5090891;28;20127;-67
2023/12/16 03:04:12;;;;;;;19.00;4.05;;;4.60;99.90;;;;;;5091093;28;21003;-67
2023/12/16 03:06:44;;;;;;;11.93;3.47;;;4.60;99.90;;;;;;5090867;28;20161;-68
2023/12/16 03:09:10;;;;;;;22.25;3.83;;;4.60;99.90;;;;;;5082598;28;20096;-67
2023/12/16 03:11:36;;;;;;;17.83;4.07;;;4.50;99.90;;;;;;5084118;28;20032;-67
2023/12/16 03:14:02;;;;;;;22.50;4.55;;;4.50;99.90;;;;;;5089229;28;20032;-67
2023/12/16 03:16:27;;;;;;;14.73;3.83;;;4.50;99.90;;;;;;5087498;28;20040;-67
2023/12/16 03:18:53;;;;;;;17.45;3.85;;;4.50;99.90;;;;;;5086460;28;20746;-68
2023/12/16 03:21:18;;;;;;;19.00;3.90;;;4.50;99.90;;;;;;5094153;28;20814;-67
2023/12/16 03:23:44;;;;;;;11.30;3.30;;;4.50;99.90;;;;;;5087241;28;20077;-66
2023/12/16 03:26:09;;;;;;;16.83;4.20;;;4.50;99.90;;;;;;5093972;28;20127;-67
2023/12/16 03:28:35;;;;;;;18.73;3.47;;;4.50;99.90;;;;;;5091175;28;20542;-66
2023/12/16 03:31:00;;;;;;;13.43;3.67;;;4.50;99.90;;;;;;5091672;28;20040;-66
2023/12/16 03:33:26;;;;;;;14.25;3.72;;;4.50;99.90;;;;;;5087423;28;20396;-67
2023/12/16 03:35:52;;;;;;;14.85;3.85;;;4.50;99.90;;;;;;5086217;28;20047;-66
2023/12/16 03:38:17;;;;;;;21.27;4.47;;;4.60;99.90;;;;;;5091937;28;20035;-67
2023/12/16 03:40:43;;;;;;;23.33;4.95;;;4.60;99.90;;;;;;5093557;28;20549;-66
2023/12/16 03:43:08;;;;;;;23.63;5.25;;;4.60;99.90;;;;;;5083730;28;20032;-68
2023/12/16 03:45:34;;;;;;;21.10;4.32;;;4.60;99.90;;;;;;5087455;28;20036;-66
2023/12/16 03:47:59;;;;;;;20.27;4.90;;;4.60;99.90;;;;;;5083818;28;20543;-67
2023/12/16 03:50:25;;;;;;;15.63;4.20;;;4.60;99.90;;;;;;5083138;28;20064;-67
2023/12/16 03:52:51;;;;;;;21.17;4.75;;;4.60;99.90;;;;;;5088670;28;20051;-67
2023/12/16 03:55:16;;;;;;;15.18;3.67;;;4.60;99.90;;;;;;5090129;28;20040;-67
2023/12/16 03:57:42;;;;;;;18.38;5.45;;;4.60;99.90;;;;;;5089092;28;20036;-67
2023/12/16 04:00:11;;;;;;;18.70;4.97;;;4.60;99.90;;;;;;5086956;28;20032;-67
2023/12/16 04:02:36;;;;;;;21.77;5.72;;;4.60;99.90;;;;;;5091243;28;20209;-66
2023/12/16 04:05:02;;;;;;;27.33;5.35;;;4.60;99.90;;;;;;5087864;28;20871;-66
2023/12/16 04:07:27;;;;;;;21.15;4.90;;;4.50;99.90;;;;;;5086106;28;20636;-68
2023/12/16 04:09:54;;;;;;;21.15;4.25;;;4.60;99.90;;;;;;5085053;28;20802;-67
2023/12/16 04:12:19;;;;;;;20.45;5.50;;;4.50;99.90;;;;;;5085495;28;20381;-67
2023/12/16 04:14:46;;;;;;;22.58;5.13;;;4.60;99.90;;;;;;5093266;28;20047;-67
2023/12/16 04:17:11;;;;;;;18.95;4.50;;;4.60;99.90;;;;;;5085382;28;20047;-67
2023/12/16 04:19:37;;;;;;;20.58;4.97;;;4.60;99.90;;;;;;5090460;28;20039;-67
2023/12/16 04:22:03;;;;;;;14.55;4.45;;;4.60;99.90;;;;;;5086357;28;20047;-66
2023/12/16 04:24:29;;;;;;;19.33;5.40;;;4.60;99.90;;;;;;5084598;28;20066;-68
2023/12/16 04:26:55;;;;;;;21.00;6.10;;;4.50;99.90;;;;;;5087538;28;20052;-67
2023/12/16 04:29:21;;;;;;;21.25;5.22;;;4.50;99.90;;;;;;5090965;28;20036;-67
2023/12/16 04:31:46;;;;;;;19.42;4.55;;;4.50;99.90;;;;;;5091619;28;20519;-66
2023/12/16 04:34:12;;;;;;;24.75;5.95;;;4.60;99.90;;;;;;5089914;28;20045;-66
2023/12/16 04:36:38;;;;;;;19.83;5.20;;;4.50;99.90;;;;;;5088678;28;20032;-67
2023/12/16 04:39:07;;;;;;;20.80;4.88;;;4.50;99.90;;;;;;5092488;28;20174;-68
2023/12/16 04:41:33;;;;;;;24.92;6.18;;;4.50;99.90;;;;;;5092102;28;20127;-66
2023/12/16 04:43:59;;;;;;;15.68;5.05;;;4.50;99.90;;;;;;5087213;28;20078;-67
2023/12/16 04:46:25;;;;;;;18.80;5.85;;;4.50;99.90;;;;;;5092284;28;20100;-67
2023/12/16 04:48:51;;;;;;;21.63;5.70;;;4.50;99.90;;;;;;5087326;28;20491;-68
2023/12/16 04:51:16;;;;;;;15.35;5.35;;;4.40;99.90;;;;;;5084180;28;20028;-66
2023/12/16 04:53:42;;;;;;;21.40;5.82;;;4.40;99.90;;;;;;5091782;28;20077;-67
2023/12/16 04:56:08;;;;;;;21.20;5.60;;;4.40;99.90;;;;;;5090280;28;20120;-67
2023/12/16 04:58:34;;;;;;;16.38;4.93;;;4.30;99.90;;;;;;5089141;28;20043;-66
2023/12/16 05:00:59;;;;;;;26.55;5.85;;;4.30;99.90;;;;;;5090316;28;20044;-66
2023/12/16 05:03:26;;;;;;;17.70;5.68;;;4.40;99.90;;;;;;5088500;28;20036;-67
2023/12/16 05:05:52;;;;;;;20.80;5.65;;;4.40;99.90;;;;;;5084639;28;20569;-67
2023/12/16 05:08:19;;;;;;;22.50;5.25;;;4.30;99.90;;;;;;5089191;28;20044;-67
2023/12/16 05:10:47;;;;;;;20.90;6.20;;;4.40;99.90;;;;;;5095060;28;20042;-67
2023/12/16 05:13:14;;;;;;;18.10;5.18;;;4.40;99.90;;;;;;5095210;28;20035;-67
2023/12/16 05:15:40;;;;;;;24.42;5.40;;;4.30;99.90;;;;;;5084458;28;20043;-67
2023/12/16 05:18:06;;;;;;;16.77;5.13;;;4.30;99.90;;;;;;5085400;28;20047;-67
2023/12/16 05:20:33;;;;;;;15.85;5.07;;;4.30;99.90;;;;;;5083893;28;20118;-67
2023/12/16 05:23:02;;;;;;;20.23;4.22;;;4.20;99.90;;;;;;5084972;28;20581;-69
2023/12/16 05:25:28;;;;;;;20.20;4.82;;;4.20;99.90;;;;;;5091502;28;20031;-66
2023/12/16 05:27:54;;;;;;;17.85;4.75;;;4.20;99.90;;;;;;5095561;28;20051;-66
2023/12/16 05:30:20;;;;;;;21.80;5.18;;;4.20;99.90;;;;;;5093618;28;20063;-66
2023/12/16 05:32:45;;;;;;;27.73;5.15;;;4.20;99.90;;;;;;5090526;28;20124;-66
2023/12/16 05:35:11;;;;;;;32.88;7.10;;;4.20;99.90;;;;;;5089276;28;20036;-67
2023/12/16 05:37:37;;;;;;;19.23;5.25;;;4.20;99.90;;;;;;5085204;28;20044;-67
2023/12/16 05:40:03;;;;;;;15.07;4.63;;;4.10;99.90;;;;;;5088121;28;20044;-66
2023/12/16 05:42:29;;;;;;;18.95;4.93;;;4.10;99.90;;;;;;5091178;28;20046;-66
2023/12/16 05:44:55;;;;;;;23.13;5.13;;;4.10;99.90;;;;;;5092541;28;20036;-66
2023/12/16 05:47:20;;;;;;;21.50;5.88;;;4.10;99.90;;;;;;5092590;28;23100;-66
2023/12/16 05:49:46;;;;;;;26.75;5.15;;;4.10;99.90;;;;;;5094575;28;20032;-66
2023/12/16 05:52:12;;;;;;;15.70;4.30;;;4.10;99.90;;;;;;5088581;28;20093;-67
2023/12/16 05:54:38;;;;;;;18.73;4.78;;;4.10;99.90;;;;;;5087647;28;20131;-66
2023/12/16 05:57:03;;;;;;;17.55;3.97;;;4.20;99.90;;;;;;5082625;28;20123;-67
2023/12/16 05:59:29;;;;;;;20.67;4.32;;;4.20;99.90;;;;;;5090428;28;20036;-67
2023/12/16 06:01:55;;;;;;;16.25;4.78;;;4.20;99.90;;;;;;5090370;28;20066;-68
2023/12/16 06:04:21;;;;;;;19.95;5.07;;;4.20;99.90;;;;;;5089799;28;20841;-68
2023/12/16 06:06:46;;;;;;;16.75;4.72;;;4.30;99.90;;;;;;5093473;28;20788;-68
2023/12/16 06:09:12;;;;;;;17.42;5.00;;;4.30;99.90;;;;;;5089650;28;20126;-68
2023/12/16 06:11:38;;;;;;;21.88;5.05;;;4.30;99.90;;;;;;5090356;28;20036;-68
2023/12/16 06:14:03;;;;;;;18.10;5.57;;;4.30;99.90;;;;;;5090033;28;20036;-70
2023/12/16 06:16:29;;;;;;;19.60;5.15;;;4.30;99.90;;;;;;5087046;28;20127;-68
2023/12/16 06:18:55;;;;;;;23.30;6.43;;;4.30;99.90;;;;;;5083125;28;20112;-69
2023/12/16 06:21:20;;;;;;;19.02;5.57;;;4.30;99.90;;;;;;5087432;28;20036;-68
2023/12/16 06:23:46;;;;;;;14.93;4.55;;;4.30;99.90;;;;;;5089455;28;20042;-69
2023/12/16 06:26:11;;;;;;;20.85;5.07;;;4.40;99.90;;;;;;5091241;28;20032;-68
2023/12/16 06:28:37;;;;;;;22.67;5.47;;;4.30;99.90;;;;;;5085172;28;20032;-68
2023/12/16 06:31:03;;;;;;;16.55;6.15;;;4.30;99.90;;;;;;5087707;28;20036;-69
2023/12/16 06:33:28;;;;;;;17.95;4.65;;;4.30;99.90;;;;;;5086378;28;20044;-68
2023/12/16 06:35:54;;;;;;;17.05;4.78;;;4.30;99.90;;;;;;5087861;28;20035;-69
2023/12/16 06:38:20;;;;;;;18.92;4.97;;;4.30;99.90;;;;;;5086260;28;20035;-70
2023/12/16 06:40:45;;;;;;;22.20;5.10;;;4.30;99.90;;;;;;5088919;28;20032;-68
2023/12/16 06:43:11;;;;;;;18.23;4.18;;;4.40;99.90;;;;;;5082722;28;20036;-68
2023/12/16 06:45:38;;;;;;;15.40;4.70;;;4.30;99.90;;;;;;5082104;28;20040;-67
2023/12/16 06:48:04;;;;;;;17.73;4.65;;;4.30;99.90;;;;;;5084806;28;20047;-67
2023/12/16 06:50:30;;;;;;;18.98;5.10;;;4.30;99.90;;;;;;5091594;28;20123;-67
2023/12/16 06:52:55;;;;;;;21.77;4.80;;;4.30;99.90;;;;;;5085180;28;20833;-68
2023/12/16 06:55:21;;;;;;;16.88;4.88;;;4.30;99.90;;;;;;5090234;28;20047;-68
2023/12/16 06:57:46;;;;;;;17.17;4.25;;;4.40;99.90;;;;;;5085515;28;20040;-68
2023/12/16 07:00:12;;;;;;;18.02;5.20;;;4.40;99.90;;;;;;5085863;28;20027;-69
2023/12/16 07:02:41;;;;;;;15.85;3.85;;;4.40;99.90;;;;;;5084063;28;20466;-67
2023/12/16 07:05:07;;;;;;;21.45;4.35;;;4.40;99.90;;;;;;5092004;28;20040;-69
2023/12/16 07:07:33;;;;;;;17.08;4.57;;;4.40;99.90;;;;;;5091919;28;20139;-69
2023/12/16 07:09:59;;;;;;;15.15;3.85;;;4.30;99.90;;;;;;5086280;28;20039;-69
2023/12/16 07:12:24;;;;;;;15.05;4.25;;;4.30;99.90;;;;;;5091137;28;20489;-68
2023/12/16 07:14:50;;;;;;;10.10;3.70;;;4.30;99.90;;;;;;5085568;28;20048;-69
2023/12/16 07:17:15;;;;;;;15.60;4.05;;;4.30;99.90;;;;;;5088064;28;20071;-69
2023/12/16 07:19:41;;;;;;;12.82;4.30;;;4.30;99.90;;;;;;5090442;28;20733;-67
2023/12/16 07:22:07;;;;;;;16.58;4.05;;;4.30;99.90;;;;;;5086882;28;20187;-67
2023/12/16 07:24:33;;;;;;;13.63;4.30;;;4.30;99.90;;;;;;5092337;28;20491;-67
2023/12/16 07:26:58;;;;;;;24.10;4.43;;;4.30;99.90;;;;;;5087731;28;20633;-67
2023/12/16 07:29:25;;;;;;;21.27;3.80;;;4.30;99.90;;;;;;5099187;28;20039;-67
2023/12/16 07:31:50;;;;;;;23.00;3.90;;;4.30;99.90;;;;;;5091451;28;20031;-68
2023/12/16 07:34:16;;;;;;;16.35;3.65;;;4.30;99.90;;;;;;5090774;28;20040;-67
2023/12/16 07:36:43;;;;;;;18.75;4.05;;;4.30;99.90;;;;;;5091666;28;20043;-67
2023/12/16 07:39:09;;;;;;;22.20;4.35;;;4.30;99.90;;;;;;5089664;28;20518;-67
2023/12/16 07:41:35;;;;;;;25.95;4.63;;;4.30;99.90;;;;;;5088261;28;20032;-67
2023/12/16 07:44:01;;;;;;;20.35;4.40;;;4.20;99.90;;;;;;5092193;28;20078;-65
2023/12/16 07:46:28;;;;;;;17.45;4.78;;;4.20;99.90;;;;;;5072804;28;20046;-66
2023/12/16 07:48:53;;;;;;;17.40;4.35;;;4.20;99.90;;;;;;5090852;28;20058;-66
2023/12/16 07:51:25;;;;;;;14.05;3.70;;;4.20;99.90;;;;;;5086639;28;20040;-67
2023/12/16 07:53:51;;;;;;;15.52;4.45;;;4.20;99.90;;;;;;5090507;28;20111;-66
2023/12/16 07:56:21;;;;;;;16.10;3.95;;;4.20;99.90;;;;;;5094175;28;20122;-66
2023/12/16 07:58:47;;;;;;;20.40;3.83;;;4.20;99.90;;;;;;5092624;28;20585;-69
2023/12/16 08:01:14;;;;;;;24.70;4.72;;;4.20;99.90;;;;;;5095800;28;20035;-66
2023/12/16 08:03:40;;;;;;;11.27;3.60;;;4.30;99.90;;;;;;5101368;28;20058;-70
2023/12/16 08:06:05;;;;;;;12.65;3.72;;;4.30;99.90;;;;;;5093626;28;20048;-69
2023/12/16 08:08:33;;;;;;;15.18;4.32;;;4.30;99.90;;;;;;5075669;28;20104;-67
2023/12/16 08:10:59;;;;;;;17.88;4.25;;;4.20;99.90;;;;;;5076178;28;20134;-68
2023/12/16 08:13:25;;;;;;;16.65;4.28;;;4.20;99.90;;;;;;5090366;28;20127;-66
2023/12/16 08:15:50;;;;;;;18.83;4.15;;;4.20;99.90;;;;;;5089237;28;20043;-65
2023/12/16 08:18:16;;;;;;;21.48;4.55;;;4.20;99.90;;;;;;5087575;28;20036;-67
2023/12/16 08:20:41;;;;;;;19.33;4.35;;;4.20;99.90;;;;;;5091962;28;20041;-67
2023/12/16 08:23:08;;;;;;;23.52;4.53;;;4.20;99.90;;;;;;5089814;28;20032;-66
2023/12/16 08:25:35;;;;;;;12.88;3.10;;;4.20;99.90;;;;;;5087889;28;20055;-67
2023/12/16 08:28:01;;;;;;;13.98;4.05;;;4.30;99.90;;;;;;5083658;28;20035;-67
2023/12/16 08:30:27;;;;;;;14.75;4.43;;;4.30;99.90;;;;;;5086514;28;20035;-66
2023/12/16 08:32:53;;;;;;;18.65;4.25;;;4.30;99.90;;;;;;5086783;28;20046;-67
2023/12/16 08:35:19;;;;;;;18.95;4.10;;;4.30;99.90;;;;;;5090383;28;20039;-68
2023/12/16 08:37:44;;;;;;;14.98;3.88;;;4.30;99.90;;;;;;5086704;28;20828;-68
2023/12/16 08:40:10;;;;;;;16.48;3.55;;;4.30;99.90;;;;;;5091147;28;20040;-67
2023/12/16 08:42:37;;;;;;;14.70;3.75;;;4.40;99.90;;;;;;5084943;28;20047;-67
2023/12/16 08:45:03;;;;;;;17.98;3.53;;;4.40;99.90;;;;;;5093312;28;20085;-67
2023/12/16 08:47:28;;;;;;;12.48;3.65;;;4.50;99.90;;;;;;5087508;28;20692;-67
2023/12/16 08:49:54;;;;;;;13.80;3.70;;;4.50;99.90;;;;;;5087109;28;20836;-67
2023/12/16 08:52:20;;;;;;;13.43;2.80;;;4.60;99.90;;;;;;5086211;28;20059;-66
2023/12/16 08:54:46;;;;;;;21.92;4.13;;;4.70;99.90;;;;;;5090353;28;20031;-68
2023/12/16 08:57:11;;;;;;;14.90;4.03;;;4.80;99.90;;;;;;5089189;28;20564;-68
2023/12/16 08:59:37;;;;;;;19.33;4.05;;;4.80;99.90;;;;;;5090200;28;20036;-68
2023/12/16 09:02:03;;;;;;;15.77;3.40;;;4.90;99.90;;;;;;5083488;28;20073;-68
2023/12/16 09:04:28;;;;;;;20.83;4.25;;;4.90;99.90;;;;;;5084424;28;20611;-66
2023/12/16 09:06:55;;;;;;;20.13;3.03;;;5.00;99.90;;;;;;5083681;28;20491;-67
2023/12/16 09:09:21;;;;;;;17.92;3.35;;;5.10;99.90;;;;;;5086254;28;20032;-66
2023/12/16 09:11:46;;;;;;;15.45;3.33;;;5.10;99.90;;;;;;5088877;28;20036;-67
2023/12/16 09:14:12;;;;;;;14.77;3.55;;;5.20;99.90;;;;;;5084679;28;20122;-68
2023/12/16 09:16:38;;;;;;;18.33;3.40;;;5.20;99.90;;;;;;5084825;28;20036;-67
2023/12/16 09:19:03;;;;;;;21.23;3.28;;;5.20;99.90;;;;;;5085974;28;20077;-67
2023/12/16 09:21:29;;;;;;;10.63;3.53;;;5.20;99.90;;;;;;5083535;28;20043;-66
2023/12/16 09:23:55;;;;;;;22.75;3.70;;;5.20;99.90;;;;;;5089615;28;20032;-68
2023/12/16 09:26:23;;;;;;;22.60;4.18;;;5.20;99.90;;;;;;5088564;28;20036;-67
2023/12/16 09:28:49;;;;;;;18.90;3.67;;;5.20;99.90;;;;;;5092745;28;20036;-67
2023/12/16 09:31:16;;;;;;;18.40;3.58;;;5.20;99.90;;;;;;5087104;28;20158;-66
2023/12/16 09:33:41;;;;;;;19.05;3.55;;;5.30;99.90;;;;;;5085379;28;20125;-66
2023/12/16 09:36:12;;;;;;;10.40;3.08;;;5.30;99.90;;;;;;5087789;28;20070;-67
2023/12/16 09:38:38;;;;;;;16.33;2.97;;;5.30;99.90;;;;;;5086686;28;20704;-67
2023/12/16 09:41:04;;;;;;;20.67;3.28;;;5.30;99.90;;;;;;5086794;28;20115;-68
2023/12/16 09:43:33;;;;;;;13.52;2.83;;;5.40;99.90;;;;;;5085942;28;20032;-67
2023/12/16 09:45:58;;;;;;;14.93;3.40;;;5.40;99.90;;;;;;5084317;28;20185;-67
2023/12/16 09:48:24;;;;;;;18.38;3.42;;;5.40;99.90;;;;;;5084646;28;20127;-67
2023/12/16 09:50:50;;;;;;;23.65;4.38;;;5.40;99.90;;;;;;5083779;28;20040;-66
2023/12/16 09:53:16;;;;;;;19.75;3.85;;;5.40;99.90;;;;;;5085584;28;20566;-67
2023/12/16 09:55:42;;;;;;;13.68;3.20;;;5.40;99.90;;;;;;5083517;28;20472;-68
2023/12/16 09:58:11;;;;;;;19.83;3.78;;;5.50;99.90;;;;;;5083158;28;20031;-68
2023/12/16 10:00:45;;;;;;;20.58;4.07;;;5.50;99.90;;;;;;5083834;28;20039;-67
2023/12/16 10:03:12;;;;;;;23.83;2.85;;;5.50;99.90;;;;;;5084492;28;20040;-68
2023/12/16 10:05:38;;;;;;;18.23;2.85;;;5.50;99.90;;;;;;5090252;28;20119;-67
2023/12/16 10:08:05;;;;;;;15.98;3.42;;;5.50;99.90;;;;;;5088582;28;20048;-67
2023/12/16 10:10:31;;;;;;;19.77;4.13;;;5.50;99.90;;;;;;5084787;28;20451;-67
2023/12/16 10:13:02;;;;;;;16.50;3.38;;;5.60;99.90;;;;;;5087430;28;20044;-65
2023/12/16 10:15:32;;;;;;;21.25;4.00;;;5.60;99.90;;;;;;5086849;28;20043;-66
2023/12/16 10:18:00;;;;;;;21.38;3.30;;;5.60;99.90;;;;;;5082632;28;20044;-67
2023/12/16 10:20:26;;;;;;;22.30;3.28;;;5.70;99.90;;;;;;5083679;28;20050;-67
2023/12/16 10:22:52;;;;;;;13.00;3.10;;;5.70;99.90;;;;;;5086278;28;20048;-67
2023/12/16 10:25:18;;;;;;;13.35;3.65;;;5.70;99.90;;;;;;5083593;28;20050;-67
2023/12/16 10:27:44;;;;;;;20.77;4.47;;;5.70;99.90;;;;;;5082151;28;20047;-67
2023/12/16 10:30:11;;;;;;;16.83;3.25;;;5.70;99.90;;;;;;5082604;28;20844;-67
2023/12/16 10:32:41;;;;;;;20.65;3.65;;;5.70;99.90;;;;;;5081397;28;20047;-66
2023/12/16 10:35:07;;;;;;;19.60;3.38;;;5.70;99.90;;;;;;5083718;28;20556;-67
2023/12/16 10:37:33;;;;;;;19.63;4.53;;;5.80;99.90;;;;;;5084823;28;20124;-67
2023/12/16 10:39:59;;;;;;;18.35;3.22;;;5.70;99.90;;;;;;5089399;28;20073;-68
2023/12/16 10:42:24;;;;;;;19.98;3.47;;;5.80;99.90;;;;;;5082050;28;20035;-67
2023/12/16 10:44:53;;;;;;;17.38;3.85;;;5.80;99.90;;;;;;5085047;28;20036;-67
2023/12/16 10:47:19;;;;;;;14.57;3.42;;;5.80;99.90;;;;;;5082483;28;20032;-67
2023/12/16 10:49:45;;;;;;;24.95;3.78;;;5.80;99.90;;;;;;5082862;28;20043;-67
2023/12/16 10:52:13;;;;;;;13.77;2.92;;;5.90;99.90;;;;;;5087123;28;20035;-67
2023/12/16 10:55:02;;;;;;;21.92;3.90;;;6.00;99.90;;;;;;5089944;28;20042;-67
2023/12/16 10:57:49;;;;;;;17.08;4.20;;;6.30;99.90;;;;;;5087444;28;20101;-66
2023/12/16 11:00:27;;;;;;;21.20;3.47;;;6.50;99.90;;;;;;5085224;28;20043;-66
2023/12/16 11:03:29;;;;;;;13.80;3.17;;;6.60;99.90;;;;;;5082388;28;20056;-67
2023/12/16 11:06:12;;;;;;;12.57;2.67;;;6.70;99.90;;;;;;5084668;28;20052;-68
2023/12/16 11:08:39;;;;;;;22.10;3.20;;;6.70;99.90;;;;;;5082222;28;20051;-67
2023/12/16 11:11:05;;;;;;;19.20;3.22;;;6.80;99.90;;;;;;5085866;28;20028;-67
2023/12/16 11:13:31;;;;;;;18.80;3.15;;;6.80;99.90;;;;;;5086503;28;20051;-67
2023/12/16 11:16:07;;;;;;;17.30;2.97;;;6.90;99.90;;;;;;5083563;28;20048;-67
2023/12/16 11:18:34;;;;;;;16.15;3.50;;;6.90;99.90;;;;;;5086262;28;20071;-66
2023/12/16 11:21:05;;;;;;;21.10;3.92;;;7.00;99.90;;;;;;5071685;28;20738;-67
2023/12/16 11:23:31;;;;;;;19.42;3.63;;;7.00;99.90;;;;;;5084354;28;20101;-67
2023/12/16 11:26:02;;;;;;;22.55;3.20;;;7.00;99.90;;;;;;5097423;28;20044;-68
2023/12/16 11:28:29;;;;;;;21.80;3.47;;;7.00;99.90;;;;;;5093513;28;20073;-68
2023/12/16 11:30:57;;;;;;;21.52;3.45;;;7.10;99.90;;;;;;5096687;28;20062;-67
2023/12/16 11:33:23;;;;;;;19.10;3.45;;;7.10;99.90;;;;;;5086099;28;20093;-67
2023/12/16 11:35:53;;;;;;;20.98;3.55;;;7.20;99.90;;;;;;5084116;28;20039;-68
2023/12/16 11:38:41;;;;;;;25.02;3.65;;;7.30;99.90;;;;;;5086669;28;20028;-67
2023/12/16 11:41:07;;;;;;;24.50;3.80;;;7.50;99.90;;;;;;5083787;28;20043;-67
2023/12/16 11:43:53;;;;;;;19.80;3.30;;;7.50;99.90;;;;;;5085099;28;20054;-67
2023/12/16 11:46:43;;;;;;;13.05;2.67;;;7.60;99.90;;;;;;5084996;28;20032;-67
2023/12/16 11:49:13;;;;;;;15.60;3.35;;;7.80;99.90;;;;;;5086652;28;20044;-67
2023/12/16 11:51:39;;;;;;;15.25;2.70;;;7.80;99.90;;;;;;5082483;28;20043;-67
2023/12/16 11:54:07;;;;;;;14.50;2.78;;;7.80;99.90;;;;;;5083520;28;20028;-68
2023/12/16 11:56:33;;;;;;;11.95;3.00;;;7.90;99.90;;;;;;5090510;28;20059;-68
2023/12/16 11:59:00;;;;;;;22.67;3.92;;;7.90;99.90;;;;;;5091717;28;20440;-67
2023/12/16 12:01:31;;;;;;;19.02;3.85;;;7.90;99.90;;;;;;5095369;28;20048;-68
2023/12/16 12:03:57;;;;;;;19.85;2.90;;;7.90;99.90;;;;;;5086428;28;20055;-68
2023/12/16 12:06:24;;;;;;;21.63;3.25;;;7.90;99.90;;;;;;5091753;28;20071;-68
2023/12/16 12:08:49;;;;;;;19.45;3.85;;;7.70;99.90;;;;;;5084158;28;20124;-67
2023/12/16 12:11:16;;;;;;;;;;;7.60;99.90;;;;;;5092968;28;20124;-67
2023/12/16 12:13:46;;;;;;;22.88;4.18;;;7.60;99.90;;;;;;5093695;28;20425;-67
2023/12/16 12:16:14;;;;;;;14.65;3.30;;;7.50;99.90;;;;;;5090263;28;20127;-68
2023/12/16 12:18:40;;;;;;;20.40;3.65;;;7.40;99.90;;;;;;5079808;28;20818;-67
2023/12/16 12:21:09;;;;;;;28.20;4.30;;;7.30;99.90;;;;;;5092002;28;20056;-67
2023/12/16 12:23:40;;;;;;;23.40;3.67;;;7.20;99.90;;;;;;5090211;28;20040;-67
2023/12/16 12:26:06;;;;;;;20.25;3.20;;;7.10;99.90;;;;;;5096226;28;20062;-67
2023/12/16 12:28:33;;;;;;;15.77;3.22;;;7.10;99.90;;;;;;5094200;28;20051;-67
2023/12/16 12:31:06;;;;;;;17.38;3.42;;;7.10;99.90;;;;;;5087981;28;20032;-68
2023/12/16 12:33:33;;;;;;;16.08;3.15;;;7.10;99.90;;;;;;5088450;28;20495;-67
2023/12/16 12:35:59;;;;;;;28.55;4.13;;;7.10;99.90;;;;;;5088759;28;20151;-67
2023/12/16 12:38:27;;;;;;;21.95;3.28;;;7.10;99.90;;;;;;5097218;28;20094;-67
2023/12/16 12:41:06;;;;;;;20.40;3.83;;;7.10;99.90;;;;;;5089714;28;20530;-67
2023/12/16 12:43:35;;;;;;;25.10;3.53;;;7.10;99.90;;;;;;5088291;28;20040;-67
2023/12/16 12:46:08;;;;;;;21.00;4.10;;;7.10;99.90;;;;;;5088808;28;20526;-67